Time;durP1;ratioP1;P1;durP2;ratioP2;P2;SDS_P1;SDS_P2;PMS_P1;PMS_P2;Temp;Humidity;BMP_temperature;BMP_pressure;BME280_temperature;BME280_humidity;BME280_pressure;Samples;Min_cycle;Max_cycle;Signal;HPM_P1;HPM_P2
2023/07/06 00:00:09;;;;;;;3.88;1.60;;;;;;;18.52;63.11;99569.81;337822;28;4925;-69
2023/07/06 00:00:22;;;;;;;2.55;1.63;;;;;;;18.52;63.50;99572.44;334948;28;17907;-69
2023/07/06 00:00:34;;;;;;;2.65;1.70;;;;;;;18.51;63.08;99568.13;337572;28;4661;-69
2023/07/06 00:00:47;;;;;;;5.45;1.75;;;;;;;18.52;63.04;99569.81;331012;28;18365;-69
2023/07/06 00:01:02;;;;;;;5.20;1.55;;;;;;;18.53;62.72;99572.34;338798;28;4651;-69
2023/07/06 00:01:14;;;;;;;2.53;1.60;;;;;;;18.53;62.88;99567.09;336848;28;18134;-69
2023/07/06 00:01:26;;;;;;;2.13;1.60;;;;;;;18.54;63.00;99576.66;337159;28;17022;-69
2023/07/06 00:01:39;;;;;;;2.15;1.60;;;;;;;18.52;63.19;99572.44;339351;28;5281;-69
2023/07/06 00:01:51;;;;;;;2.20;1.45;;;;;;;18.53;62.87;99572.34;335276;28;18195;-69
2023/07/06 00:02:04;;;;;;;2.13;1.50;;;;;;;18.52;62.68;99570.66;337503;28;5459;-69
2023/07/06 00:02:16;;;;;;;2.00;1.60;;;;;;;18.52;63.07;99575.09;336021;28;18318;-69
2023/07/06 00:02:29;;;;;;;2.33;1.60;;;;;;;18.54;62.83;99570.56;340018;28;4866;-69
2023/07/06 00:02:42;;;;;;;2.95;1.60;;;;;;;18.54;62.94;99573.19;336495;28;18433;-69
2023/07/06 00:02:55;;;;;;;2.60;1.50;;;;;;;18.55;62.53;99569.59;339781;28;8176;-68
2023/07/06 00:03:07;;;;;;;2.10;1.40;;;;;;;18.53;62.77;99566.22;336967;28;17978;-68
2023/07/06 00:03:19;;;;;;;2.13;1.38;;;;;;;18.50;62.99;99567.28;339155;28;5049;-69
2023/07/06 00:03:31;;;;;;;3.33;1.50;;;;;;;18.52;63.03;99569.81;337104;28;18245;-69
2023/07/06 00:03:44;;;;;;;3.60;1.50;;;;;;;18.51;63.38;99568.13;339874;28;4635;-69
2023/07/06 00:03:56;;;;;;;4.43;1.60;;;;;;;18.51;63.25;99568.13;337239;28;17904;-69
2023/07/06 00:04:09;;;;;;;3.17;1.40;;;;;;;18.52;63.55;99575.09;339962;28;4465;-69
2023/07/06 00:04:22;;;;;;;1.90;1.35;;;;;;;18.49;64.26;99570.88;336774;28;18254;-69
2023/07/06 00:04:37;;;;;;;1.88;1.38;;;;;;;18.50;64.29;99569.09;339002;28;4611;-68
2023/07/06 00:04:49;;;;;;;2.47;1.60;;;;;;;18.51;63.82;99568.97;335230;28;18077;-68
2023/07/06 00:05:02;;;;;;;2.35;1.50;;;;;;;18.52;63.66;99569.81;335028;28;18267;-69
2023/07/06 00:05:14;;;;;;;2.08;1.30;;;;;;;18.53;63.52;99571.50;339486;28;5322;-69
2023/07/06 00:05:27;;;;;;;3.38;1.40;;;;;;;18.53;63.22;99568.84;335985;28;18294;-69
2023/07/06 00:05:43;;;;;;;3.75;1.55;;;;;;;18.53;63.44;99563.59;340037;28;4706;-68
2023/07/06 00:05:55;;;;;;;3.05;1.50;;;;;;;18.53;63.84;99568.84;339071;28;17824;-68
2023/07/06 00:06:08;;;;;;;3.13;1.60;;;;;;;18.52;63.77;99569.81;334546;28;17756;-69
2023/07/06 00:06:20;;;;;;;3.13;1.60;;;;;;;18.52;63.73;99560.13;335650;28;16887;-68
2023/07/06 00:06:32;;;;;;;3.05;1.63;;;;;;;18.53;64.09;99566.22;336660;28;4680;-69
2023/07/06 00:06:45;;;;;;;2.88;1.63;;;;;;;18.49;64.38;99565.63;336990;28;5085;-69
2023/07/06 00:06:57;;;;;;;2.40;1.60;;;;;;;18.51;64.15;99565.47;335676;28;18003;-69
2023/07/06 00:07:09;;;;;;;2.90;1.60;;;;;;;18.50;64.31;99572.56;338588;28;4669;-69
2023/07/06 00:07:22;;;;;;;3.28;1.67;;;;;;;18.51;64.33;99568.13;335387;28;18182;-68
2023/07/06 00:07:35;;;;;;;3.03;1.70;;;;;;;18.48;64.80;99574.44;338304;28;4668;-68
2023/07/06 00:07:48;;;;;;;2.40;1.63;;;;;;;18.48;64.69;99568.34;334786;28;18210;-69
2023/07/06 00:08:00;;;;;;;2.20;1.60;;;;;;;18.50;64.05;99575.19;337511;28;11625;-68
2023/07/06 00:08:14;;;;;;;1.70;1.50;;;;;;;18.50;63.79;99571.72;335774;28;17443;-69
2023/07/06 00:08:27;;;;;;;1.80;1.40;;;;;;;18.52;63.36;99577.72;335535;28;17849;-69
2023/07/06 00:08:39;;;;;;;3.35;1.55;;;;;;;18.51;63.39;99570.75;339837;28;5356;-68
2023/07/06 00:08:52;;;;;;;3.80;1.58;;;;;;;18.52;63.07;99569.81;336741;28;18242;-69
2023/07/06 00:09:07;;;;;;;2.85;1.45;;;;;;;18.51;63.44;99576.00;339929;28;4627;-69
2023/07/06 00:09:20;;;;;;;2.53;1.40;;;;;;;18.48;63.99;99573.59;337913;28;18904;-68
2023/07/06 00:09:35;;;;;;;3.15;1.42;;;;;;;18.46;64.20;99571.06;336785;28;18318;-69
2023/07/06 00:09:49;;;;;;;3.38;1.50;;;;;;;18.45;64.19;99573.78;338594;28;17904;-69
2023/07/06 00:10:01;;;;;;;3.75;1.67;;;;;;;18.45;64.13;99568.53;338667;28;17901;-69
2023/07/06 00:10:13;;;;;;;3.60;1.80;;;;;;;18.44;64.60;99567.69;341090;28;5447;-68
2023/07/06 00:10:25;;;;;;;2.90;1.90;;;;;;;18.45;64.27;99573.78;338534;28;11769;-69
2023/07/06 00:10:39;;;;;;;2.88;1.70;;;;;;;18.44;64.40;99572.97;338455;28;18243;-69
2023/07/06 00:10:51;;;;;;;3.33;1.70;;;;;;;18.45;64.41;99573.78;338431;28;17818;-69
2023/07/06 00:11:04;;;;;;;3.47;1.70;;;;;;;18.42;64.42;99572.22;341159;28;5527;-69
2023/07/06 00:11:16;;;;;;;3.28;1.60;;;;;;;18.44;64.35;99569.50;338820;28;17751;-68
2023/07/06 00:11:38;;;;;;;3.40;1.70;;;;;;;18.45;64.87;99573.78;340689;28;5536;-69
2023/07/06 00:11:51;;;;;;;2.67;1.65;;;;;;;18.44;65.14;99572.13;336997;28;17376;-69
2023/07/06 00:12:04;;;;;;;2.10;1.50;;;;;;;18.43;64.83;99570.41;339215;28;4555;-69
2023/07/06 00:12:18;;;;;;;2.70;1.60;;;;;;;18.42;64.80;99569.59;332247;28;18318;-69
2023/07/06 00:12:30;;;;;;;2.63;1.50;;;;;;;18.43;64.56;99570.41;336830;28;11593;-68
2023/07/06 00:12:43;;;;;;;2.00;1.50;;;;;;;18.40;64.72;99570.63;339406;28;5173;-69
2023/07/06 00:12:57;;;;;;;2.10;1.48;;;;;;;18.40;65.03;99578.53;339433;28;4974;-68
2023/07/06 00:13:10;;;;;;;3.50;1.80;;;;;;;18.38;64.93;99567.28;337555;28;18326;-69
2023/07/06 00:13:23;;;;;;;3.55;1.90;;;;;;;18.38;65.04;99569.91;337252;28;19208;-69
2023/07/06 00:13:38;;;;;;;2.33;1.75;;;;;;;18.35;65.07;99573.56;337521;28;4642;-69
2023/07/06 00:13:50;;;;;;;2.05;1.60;;;;;;;18.36;65.08;99575.25;337856;28;6768;-69
2023/07/06 00:14:04;;;;;;;2.58;1.55;;;;;;;18.36;65.11;99570.81;333146;28;18118;-68
2023/07/06 00:14:16;;;;;;;3.08;1.70;;;;;;;18.35;64.89;99576.19;334748;28;19327;-69
2023/07/06 00:14:28;;;;;;;2.38;1.70;;;;;;;18.33;65.16;99576.31;337496;28;5408;-69
2023/07/06 00:14:41;;;;;;;2.75;1.70;;;;;;;18.32;65.34;99577.25;336406;28;16022;-69
2023/07/06 00:14:53;;;;;;;2.35;1.70;;;;;;;18.31;65.83;99572.94;339648;28;4645;-69
2023/07/06 00:15:05;;;;;;;2.90;1.80;;;;;;;18.32;65.89;99574.59;338547;28;4653;-68
2023/07/06 00:15:18;;;;;;;2.70;1.63;;;;;;;18.33;65.67;99576.31;336252;28;17965;-69
2023/07/06 00:15:30;;;;;;;2.70;1.60;;;;;;;18.30;66.09;99579.13;338972;28;4630;-68
2023/07/06 00:15:43;;;;;;;2.22;1.60;;;;;;;18.33;66.17;99580.72;336035;28;18080;-68
2023/07/06 00:15:55;;;;;;;2.25;1.67;;;;;;;18.32;66.14;99579.88;334556;28;11634;-68
2023/07/06 00:16:08;;;;;;;2.90;1.88;;;;;;;18.31;66.33;99577.34;339892;28;5445;-69
2023/07/06 00:16:21;;;;;;;2.75;1.90;;;;;;;18.30;66.68;99576.50;339767;28;5388;-69
2023/07/06 00:16:33;;;;;;;2.38;1.70;;;;;;;18.29;66.68;99580.09;333547;28;18208;-69
2023/07/06 00:16:47;;;;;;;2.60;1.70;;;;;;;18.29;67.28;99580.09;335991;28;16542;-69
2023/07/06 00:17:12;;;;;;;2.22;1.67;;;;;;;18.32;66.59;99585.13;336535;28;11857;-69
2023/07/06 00:17:24;;;;;;;2.65;1.63;;;;;;;18.34;66.36;99582.41;334877;28;17156;-69
2023/07/06 00:17:38;;;;;;;3.42;1.45;;;;;;;18.35;66.14;99582.31;334733;28;17859;-69
2023/07/06 00:17:51;;;;;;;2.72;1.40;;;;;;;18.38;66.02;99583.06;336153;28;12917;-68
2023/07/06 00:18:04;;;;;;;2.13;1.50;;;;;;;18.40;65.77;99587.28;337412;28;5039;-69
2023/07/06 00:18:20;;;;;;;2.28;1.58;;;;;;;18.40;65.83;99586.44;337589;28;11622;-69
2023/07/06 00:18:33;;;;;;;2.17;1.50;;;;;;;18.41;65.45;99588.09;337073;28;19096;-69
2023/07/06 00:18:45;;;;;;;1.77;1.40;;;;;;;18.40;65.66;99581.16;339057;28;4616;-69
2023/07/06 00:18:58;;;;;;;1.95;1.58;;;;;;;18.35;65.90;99584.94;336879;28;18038;-69
2023/07/06 00:19:10;;;;;;;2.10;1.65;;;;;;;18.28;65.61;99583.66;341139;28;4645;-69
2023/07/06 00:19:23;;;;;;;2.10;1.70;;;;;;;18.05;66.11;99592.19;338919;28;17682;-69
2023/07/06 00:19:35;;;;;;;2.38;1.80;;;;;;;18.01;66.09;99590.69;338250;28;5196;-69
2023/07/06 00:19:47;;;;;;;2.85;1.80;;;;;;;17.91;66.36;99590.47;340275;28;18329;-68
2023/07/06 00:19:59;;;;;;;2.95;1.70;;;;;;;17.93;66.41;99584.16;340218;28;6230;-68
2023/07/06 00:20:13;;;;;;;3.20;1.77;;;;;;;17.95;66.57;99589.34;338155;28;18143;-68
2023/07/06 00:20:25;;;;;;;3.70;1.80;;;;;;;17.95;66.60;99584.91;340942;28;4502;-69
2023/07/06 00:20:38;;;;;;;3.40;1.70;;;;;;;17.95;67.07;99587.53;337563;28;18053;-68
2023/07/06 00:20:50;;;;;;;3.85;1.63;;;;;;;17.99;66.94;99592.59;340226;28;4602;-69
2023/07/06 00:21:03;;;;;;;4.03;1.80;;;;;;;17.95;67.96;99587.53;336630;28;17998;-69
2023/07/06 00:21:15;;;;;;;2.58;1.75;;;;;;;18.00;67.39;99583.78;340094;28;5189;-68
2023/07/06 00:21:30;;;;;;;2.92;1.83;;;;;;;18.03;66.88;99584.41;336664;28;18533;-69
2023/07/06 00:21:41;;;;;;;2.67;1.65;;;;;;;18.06;66.85;99588.63;336630;28;17743;-69
2023/07/06 00:21:54;;;;;;;2.50;1.60;;;;;;;18.07;66.72;99591.16;339004;28;4578;-69
2023/07/06 00:22:09;;;;;;;2.53;1.60;;;;;;;18.07;67.46;99591.16;336666;28;17691;-69
2023/07/06 00:22:21;;;;;;;2.55;1.50;;;;;;;18.08;67.33;99581.47;337225;28;19020;-69
2023/07/06 00:22:36;;;;;;;2.22;1.60;;;;;;;18.08;67.13;99581.47;338997;28;4485;-69
2023/07/06 00:22:48;;;;;;;2.00;1.75;;;;;;;18.09;67.30;99577.91;336273;28;16568;-69
2023/07/06 00:23:00;;;;;;;2.25;1.67;;;;;;;18.09;67.49;99581.38;338099;28;4643;-69
2023/07/06 00:23:12;;;;;;;2.90;1.70;;;;;;;18.11;67.50;99586.53;336195;28;18034;-69
2023/07/06 00:23:24;;;;;;;2.97;1.67;;;;;;;18.12;67.33;99588.22;338462;28;4657;-68
2023/07/06 00:23:36;;;;;;;3.47;1.80;;;;;;;18.13;67.28;99584.66;335864;28;18137;-68
2023/07/06 00:23:50;;;;;;;4.10;1.85;;;;;;;18.16;67.51;99584.47;336559;28;4548;-69
2023/07/06 00:24:02;;;;;;;4.03;1.65;;;;;;;18.16;67.37;99579.19;334456;28;18367;-69
2023/07/06 00:24:15;;;;;;;2.97;1.52;;;;;;;18.18;67.18;99587.81;337666;28;5462;-68
2023/07/06 00:24:27;;;;;;;2.38;1.48;;;;;;;18.18;67.34;99582.56;334027;28;18254;-68
2023/07/06 00:24:42;;;;;;;2.50;1.50;;;;;;;18.20;67.19;99583.31;336024;28;4626;-68
2023/07/06 00:24:54;;;;;;;2.25;1.50;;;;;;;18.20;67.38;99585.09;334241;28;17813;-69
2023/07/06 00:25:07;;;;;;;1.77;1.50;;;;;;;18.21;67.08;99584.16;335411;28;18109;-69
2023/07/06 00:25:19;;;;;;;2.80;1.75;;;;;;;18.21;67.42;99585.00;338582;28;4637;-69
2023/07/06 00:25:33;;;;;;;3.05;1.73;;;;;;;18.23;66.93;99584.88;334806;28;18425;-68
2023/07/06 00:25:45;;;;;;;2.38;1.60;;;;;;;18.22;66.97;99589.31;335172;28;5582;-69
2023/07/06 00:25:57;;;;;;;3.00;1.80;;;;;;;18.19;67.18;99589.53;339789;28;4690;-69
2023/07/06 00:26:10;;;;;;;2.97;1.73;;;;;;;18.20;66.88;99585.94;338537;28;4827;-68
2023/07/06 00:26:22;;;;;;;3.22;1.67;;;;;;;18.21;66.78;99587.66;334964;28;18169;-69
2023/07/06 00:26:34;;;;;;;2.38;1.67;;;;;;;18.21;66.75;99582.38;338747;28;5307;-69
2023/07/06 00:26:46;;;;;;;2.50;1.70;;;;;;;18.21;66.49;99587.66;335425;28;18227;-69
2023/07/06 00:26:58;;;;;;;2.17;1.73;;;;;;;18.19;66.84;99584.28;337525;28;5243;-69
2023/07/06 00:27:10;;;;;;;2.28;1.75;;;;;;;18.20;66.78;99585.94;336921;28;5530;-68
2023/07/06 00:27:22;;;;;;;2.88;1.77;;;;;;;18.20;67.11;99588.56;335586;28;18409;-69
2023/07/06 00:27:34;;;;;;;2.63;1.65;;;;;;;18.20;66.83;99588.56;338663;28;4669;-68
2023/07/06 00:27:46;;;;;;;2.67;1.77;;;;;;;18.19;67.46;99584.28;335684;28;17838;-68
2023/07/06 00:27:58;;;;;;;2.42;1.77;;;;;;;18.19;67.16;99589.53;338642;28;5148;-69
2023/07/06 00:28:11;;;;;;;2.08;1.80;;;;;;;18.16;67.38;99590.56;334944;28;11550;-69
2023/07/06 00:28:28;;;;;;;2.20;1.85;;;;;;;18.15;67.24;99593.31;339031;28;4664;-68
2023/07/06 00:28:40;;;;;;;2.40;1.67;;;;;;;18.12;67.39;99588.22;337866;28;17352;-68
2023/07/06 00:28:55;;;;;;;2.40;1.60;;;;;;;18.11;67.51;99594.41;338556;28;19155;-69
2023/07/06 00:29:08;;;;;;;2.13;1.60;;;;;;;18.12;67.57;99593.50;335480;28;18028;-68
2023/07/06 00:29:20;;;;;;;2.00;1.70;;;;;;;18.11;67.57;99595.28;339894;28;4842;-69
2023/07/06 00:29:35;;;;;;;2.35;1.70;;;;;;;18.11;67.45;99590.03;337452;28;17824;-68
2023/07/06 00:30:07;;;;;;;2.17;1.58;;;;;;;18.11;67.53;99591.78;338252;28;18031;-68
2023/07/06 00:30:20;;;;;;;2.60;1.83;;;;;;;18.14;66.99;99586.34;336881;28;15427;-68
2023/07/06 00:31:07;;;;;;;2.23;1.60;;;;;;;18.16;66.75;99589.72;336580;28;15708;-69
2023/07/06 00:31:21;;;;;;;1.85;1.50;;;;;;;18.13;66.87;99589.94;337857;28;17465;-68
2023/07/06 00:31:40;;;;;;;2.00;1.55;;;;;;;18.13;66.99;99589.94;332943;28;18104;-68
2023/07/06 00:32:04;;;;;;;3.63;1.70;;;;;;;18.12;67.24;99593.50;334766;28;16539;-69
2023/07/06 00:32:26;;;;;;;2.92;1.70;;;;;;;18.11;67.52;99592.66;337526;28;17197;-68
2023/07/06 00:32:38;;;;;;;2.28;1.52;;;;;;;18.06;68.38;99593.88;336423;28;17313;-68
2023/07/06 00:32:51;;;;;;;2.55;1.60;;;;;;;18.04;68.28;99593.16;339044;28;4653;-69
2023/07/06 00:33:03;;;;;;;3.42;1.88;;;;;;;18.03;68.62;99594.06;337548;28;18404;-68
2023/07/06 00:33:19;;;;;;;3.15;1.80;;;;;;;18.05;68.27;99592.19;340151;28;4489;-69
2023/07/06 00:33:31;;;;;;;2.80;1.67;;;;;;;18.03;68.43;99594.06;336622;28;17652;-69
2023/07/06 00:33:43;;;;;;;2.20;1.70;;;;;;;18.02;68.14;99592.41;340029;28;4619;-68
2023/07/06 00:33:55;;;;;;;1.98;1.67;;;;;;;18.02;68.44;99592.41;339042;28;4598;-69
2023/07/06 00:34:09;;;;;;;1.90;1.60;;;;;;;18.01;68.49;99585.44;337668;28;17982;-68
2023/07/06 00:34:21;;;;;;;2.20;1.63;;;;;;;18.01;68.63;99590.69;336634;28;12524;-68
2023/07/06 00:34:35;;;;;;;2.60;1.70;;;;;;;18.02;68.95;99592.41;340221;28;5557;-68
2023/07/06 00:34:49;;;;;;;1.92;1.50;;;;;;;18.03;68.85;99588.81;337627;28;18302;-68
2023/07/06 00:35:01;;;;;;;1.92;1.50;;;;;;;18.03;68.97;99588.81;336818;28;11104;-69
2023/07/06 00:35:15;;;;;;;2.13;1.65;;;;;;;18.05;68.67;99582.53;340152;28;4590;-68
2023/07/06 00:35:27;;;;;;;2.92;1.70;;;;;;;18.06;68.38;99586.00;336475;28;18292;-68
2023/07/06 00:35:43;;;;;;;3.90;1.75;;;;;;;18.09;68.37;99588.41;338945;28;4657;-69
2023/07/06 00:35:55;;;;;;;3.80;1.80;;;;;;;18.09;68.35;99584.03;337391;28;16488;-68
2023/07/06 00:36:07;;;;;;;2.83;1.70;;;;;;;18.11;68.08;99579.50;337069;28;17905;-68
2023/07/06 00:36:20;;;;;;;3.05;1.70;;;;;;;18.13;68.16;99584.66;339260;28;4759;-68
2023/07/06 00:36:35;;;;;;;2.80;1.67;;;;;;;18.13;68.01;99582.88;337495;28;18291;-68
2023/07/06 00:36:47;;;;;;;3.05;1.80;;;;;;;18.13;68.28;99582.03;334135;28;17871;-68
2023/07/06 00:37:02;;;;;;;3.72;1.98;;;;;;;18.13;68.71;99582.03;339900;28;5017;-68
2023/07/06 00:37:14;;;;;;;3.10;1.90;;;;;;;18.11;69.02;99582.13;334636;28;17851;-68
2023/07/06 00:37:29;;;;;;;2.38;1.75;;;;;;;18.13;68.75;99584.66;336405;28;18743;-68
2023/07/06 00:37:42;;;;;;;1.90;1.60;;;;;;;18.14;68.58;99581.09;336071;28;11959;-68
2023/07/06 00:37:54;;;;;;;2.38;1.63;;;;;;;18.16;68.50;99589.72;338555;28;4775;-68
2023/07/06 00:38:10;;;;;;;3.55;1.60;;;;;;;18.16;68.26;99590.56;335527;28;18743;-69
2023/07/06 00:38:23;;;;;;;3.75;1.60;;;;;;;18.17;67.96;99575.63;335456;28;5415;-69
2023/07/06 00:38:36;;;;;;;2.38;1.60;;;;;;;18.20;67.81;99582.47;338559;28;4638;-68
2023/07/06 00:38:49;;;;;;;2.60;1.58;;;;;;;18.21;67.85;99592.03;337825;28;18141;-69
2023/07/06 00:39:01;;;;;;;2.30;1.52;;;;;;;18.21;67.71;99579.75;337087;28;18613;-68
2023/07/06 00:39:14;;;;;;;3.63;1.55;;;;;;;18.22;67.43;99581.41;339195;28;4677;-68
2023/07/06 00:39:26;;;;;;;3.50;1.70;;;;;;;18.21;67.76;99579.75;336351;28;11703;-68
2023/07/06 00:39:39;;;;;;;2.88;1.60;;;;;;;18.23;67.53;99583.13;338948;28;4650;-68
2023/07/06 00:39:51;;;;;;;2.45;1.58;;;;;;;18.21;67.59;99582.38;337353;28;12847;-69
2023/07/06 00:40:08;;;;;;;2.40;1.50;;;;;;;18.21;67.93;99585.00;339126;28;4624;-68
2023/07/06 00:40:21;;;;;;;1.80;1.60;;;;;;;18.22;68.07;99575.31;336749;28;17524;-69
2023/07/06 00:40:33;;;;;;;1.80;1.60;;;;;;;18.20;67.78;99580.69;337388;28;18203;-69
2023/07/06 00:40:48;;;;;;;2.53;1.58;;;;;;;18.21;67.53;99585.00;338761;28;5234;-68
2023/07/06 00:41:00;;;;;;;3.38;1.60;;;;;;;18.22;67.64;99588.47;335939;28;18039;-69
2023/07/06 00:41:12;;;;;;;4.28;1.75;;;;;;;18.21;67.57;99582.38;336356;28;11462;-69
2023/07/06 00:41:24;;;;;;;3.65;1.70;;;;;;;18.20;67.78;99585.94;339429;28;4607;-68
2023/07/06 00:41:37;;;;;;;2.60;1.73;;;;;;;18.16;68.43;99579.19;335678;28;18307;-68
2023/07/06 00:41:49;;;;;;;2.10;1.55;;;;;;;18.17;68.30;99584.38;339775;28;4925;-68
2023/07/06 00:42:05;;;;;;;2.00;1.50;;;;;;;18.17;67.80;99586.16;336788;28;18190;-68
2023/07/06 00:42:19;;;;;;;2.22;1.83;;;;;;;18.16;67.96;99579.19;337481;28;17809;-69
2023/07/06 00:42:32;;;;;;;2.53;1.90;;;;;;;18.15;67.84;99580.16;334287;28;18651;-68
2023/07/06 00:42:44;;;;;;;2.13;1.65;;;;;;;18.11;68.41;99582.13;339011;28;4668;-69
2023/07/06 00:42:59;;;;;;;3.65;1.63;;;;;;;18.12;68.45;99585.59;337306;28;18321;-69
2023/07/06 00:43:17;;;;;;;3.70;1.60;;;;;;;18.06;68.75;99581.56;337374;28;10823;-68
2023/07/06 00:43:49;;;;;;;2.10;1.60;;;;;;;18.05;68.64;99592.19;337040;28;19090;-69
2023/07/06 00:44:02;;;;;;;2.50;1.80;;;;;;;18.05;68.48;99581.66;335263;28;16483;-68
2023/07/06 00:44:50;;;;;;;2.33;1.70;;;;;;;17.99;68.87;99584.69;338794;28;5682;-68
2023/07/06 00:45:03;;;;;;;3.38;1.80;;;;;;;17.94;69.03;99585.84;337396;28;18353;-68
2023/07/06 00:45:16;;;;;;;3.30;1.77;;;;;;;17.93;68.94;99585.97;340066;28;5310;-68
2023/07/06 00:45:28;;;;;;;2.33;1.63;;;;;;;17.91;68.83;99579.94;337355;28;17863;-68
2023/07/06 00:45:42;;;;;;;1.92;1.60;;;;;;;17.91;68.96;99582.59;339657;28;4701;-68
2023/07/06 00:46:12;;;;;;;3.20;1.67;;;;;;;17.88;69.37;99580.13;334400;28;18416;-69
2023/07/06 00:46:29;;;;;;;2.15;1.70;;;;;;;17.87;69.23;99579.28;335758;28;17290;-69
2023/07/06 00:46:42;;;;;;;2.20;1.83;;;;;;;17.85;69.40;99578.56;336072;28;16376;-69
2023/07/06 00:46:55;;;;;;;3.72;1.90;;;;;;;17.84;69.73;99574.22;340236;28;5651;-69
2023/07/06 00:47:09;;;;;;;4.22;1.83;;;;;;;17.87;69.56;99583.72;337410;28;19244;-69
2023/07/06 00:47:49;;;;;;;5.78;1.90;;;;;;;17.83;70.08;99583.06;337426;28;17856;-69
2023/07/06 00:48:01;;;;;;;2.00;1.70;;;;;;;17.82;70.41;99580.50;336644;28;17381;-69
2023/07/06 00:48:26;;;;;;;2.10;1.80;;;;;;;17.82;70.40;99586.59;339546;28;4647;-69
2023/07/06 00:48:44;;;;;;;3.72;1.80;;;;;;;17.82;69.80;99581.34;337289;28;17216;-69
2023/07/06 00:48:57;;;;;;;2.70;1.70;;;;;;;17.80;70.26;99583.22;338189;28;17585;-69
2023/07/06 00:49:15;;;;;;;2.13;1.80;;;;;;;17.83;69.76;99582.16;336842;28;17458;-69
2023/07/06 00:49:27;;;;;;;2.60;1.95;;;;;;;17.81;69.74;99589.31;336261;28;18177;-69
2023/07/06 00:49:40;;;;;;;3.88;1.92;;;;;;;17.82;69.94;99580.50;339222;28;5233;-69
2023/07/06 00:49:52;;;;;;;3.55;1.77;;;;;;;17.79;70.51;99576.28;336504;28;18251;-69
2023/07/06 00:50:17;;;;;;;2.45;1.70;;;;;;;17.78;70.36;99580.69;338990;28;4662;-69
2023/07/06 00:50:30;;;;;;;3.55;1.73;;;;;;;17.74;71.06;99580.97;337524;28;17502;-69
2023/07/06 00:50:42;;;;;;;3.55;1.73;;;;;;;17.76;70.43;99581.72;336759;28;17545;-69
2023/07/06 00:50:59;;;;;;;3.63;1.90;;;;;;;17.79;70.18;99576.28;340402;28;4674;-69
2023/07/06 00:51:17;;;;;;;3.38;1.77;;;;;;;17.81;69.78;99578.78;340062;28;16410;-69
2023/07/06 00:51:35;;;;;;;3.08;1.60;;;;;;;17.82;69.63;99576.06;337420;28;17754;-69
2023/07/06 00:51:47;;;;;;;3.13;1.75;;;;;;;17.81;69.84;99584.91;336634;28;17659;-69
2023/07/06 00:52:00;;;;;;;2.63;1.70;;;;;;;17.81;70.20;99584.91;339602;28;5021;-69
2023/07/06 00:52:13;;;;;;;2.60;1.65;;;;;;;17.81;70.36;99589.31;336396;28;18218;-69
2023/07/06 00:52:26;;;;;;;3.85;1.90;;;;;;;17.78;70.42;99571.94;340241;28;5542;-69
2023/07/06 00:52:44;;;;;;;4.43;1.77;;;;;;;17.80;69.95;99577.13;337742;28;19093;-69
2023/07/06 00:53:11;;;;;;;3.10;1.60;;;;;;;17.74;70.82;99584.44;335924;28;17848;-69
2023/07/06 00:53:28;;;;;;;2.10;1.80;;;;;;;17.76;70.48;99584.34;335477;28;18378;-69
2023/07/06 00:53:43;;;;;;;3.30;1.73;;;;;;;17.77;70.28;99583.44;337277;28;17744;-69
2023/07/06 00:54:06;;;;;;;3.80;1.83;;;;;;;17.75;70.35;99585.31;336380;28;17894;-69
2023/07/06 00:54:19;;;;;;;2.45;1.83;;;;;;;17.75;70.79;99585.31;337433;28;19094;-69
2023/07/06 00:54:35;;;;;;;2.20;1.80;;;;;;;17.75;70.74;99580.06;335932;28;4661;-69
2023/07/06 00:54:48;;;;;;;3.00;1.70;;;;;;;17.74;70.45;99583.59;335921;28;17818;-69
2023/07/06 00:55:01;;;;;;;2.97;1.50;;;;;;;17.69;70.92;99580.44;338453;28;4556;-69
2023/07/06 00:55:16;;;;;;;2.40;1.60;;;;;;;17.71;70.56;99583.81;335393;28;17901;-69
2023/07/06 00:55:32;;;;;;;3.28;1.80;;;;;;;17.73;70.14;99580.13;335986;28;18283;-69
2023/07/06 00:55:44;;;;;;;3.60;1.88;;;;;;;17.74;70.43;99575.72;335082;28;18252;-69
2023/07/06 00:55:58;;;;;;;3.30;1.95;;;;;;;17.76;70.18;99592.25;336071;28;11484;-69
2023/07/06 00:56:16;;;;;;;3.45;1.95;;;;;;;17.76;69.78;99587.81;338912;28;5448;-69
2023/07/06 00:56:34;;;;;;;3.17;1.58;;;;;;;17.78;69.89;99585.94;336981;28;18086;-69
2023/07/06 00:56:52;;;;;;;2.70;1.60;;;;;;;17.77;69.59;99588.69;336869;28;17447;-69
2023/07/06 00:57:04;;;;;;;2.45;1.67;;;;;;;17.76;69.45;99581.72;337847;28;17878;-69
2023/07/06 00:57:19;;;;;;;3.95;1.70;;;;;;;17.75;69.26;99585.31;337725;28;11496;-69
2023/07/06 00:57:32;;;;;;;4.35;1.70;;;;;;;17.74;69.19;99584.44;332363;28;15044;-69
2023/07/06 00:57:51;;;;;;;3.35;1.67;;;;;;;17.75;69.50;99590.56;338034;28;5434;-69
2023/07/06 00:58:12;;;;;;;2.50;1.60;;;;;;;17.74;69.27;99580.97;336508;28;17722;-69
2023/07/06 00:58:31;;;;;;;2.00;1.70;;;;;;;17.73;69.69;99587.19;334218;28;17176;-69
2023/07/06 00:58:47;;;;;;;2.17;1.60;;;;;;;17.73;69.79;99589.81;336751;28;17754;-69
2023/07/06 00:59:02;;;;;;;3.60;1.60;;;;;;;17.71;69.75;99583.81;333832;28;16522;-69
2023/07/06 00:59:19;;;;;;;3.42;1.65;;;;;;;17.69;69.62;99585.69;334285;28;18045;-69
2023/07/06 00:59:33;;;;;;;2.17;1.60;;;;;;;17.68;69.65;99584.84;337206;28;18800;-69
2023/07/06 00:59:45;;;;;;;2.95;1.63;;;;;;;17.68;69.72;99584.84;336659;28;4533;-69
2023/07/06 00:59:58;;;;;;;3.13;1.60;;;;;;;17.68;69.36;99589.25;335242;28;17820;-69
2023/07/06 01:00:12;;;;;;;2.58;1.48;;;;;;;17.67;69.44;99577.06;337247;28;4533;-69
2023/07/06 01:00:25;;;;;;;2.60;1.75;;;;;;;17.65;69.05;99578.94;334507;28;17750;-69
2023/07/06 01:00:39;;;;;;;2.55;1.95;;;;;;;17.64;68.78;99579.88;333688;28;18259;-69
2023/07/06 01:00:54;;;;;;;2.72;1.88;;;;;;;17.64;69.07;99587.75;334305;28;4858;-69
2023/07/06 01:01:09;;;;;;;2.95;1.70;;;;;;;17.60;69.17;99586.25;335934;28;13036;-69
2023/07/06 01:01:23;;;;;;;2.58;1.63;;;;;;;17.59;69.42;99574.91;336160;28;11978;-69
2023/07/06 01:01:43;;;;;;;2.85;1.80;;;;;;;17.57;69.31;99580.25;339672;28;4496;-69
2023/07/06 01:01:59;;;;;;;2.90;1.80;;;;;;;17.56;69.40;99586.44;337197;28;17158;-69
2023/07/06 01:02:15;;;;;;;4.75;1.80;;;;;;;17.54;69.47;99583.06;338290;28;17587;-69
2023/07/06 01:02:27;;;;;;;3.95;1.80;;;;;;;17.48;69.30;99583.44;337541;28;17844;-69
2023/07/06 01:02:41;;;;;;;3.90;1.92;;;;;;;17.42;69.72;99583.84;340042;28;4638;-69
2023/07/06 01:02:59;;;;;;;4.00;2.00;;;;;;;17.39;69.84;99591.94;335846;28;19238;-69
2023/07/06 01:03:11;;;;;;;5.00;1.90;;;;;;;17.39;69.82;99586.66;338699;28;17812;-69
2023/07/06 01:03:24;;;;;;;4.70;1.80;;;;;;;17.36;70.66;99584.22;337453;28;17702;-69
2023/07/06 01:03:44;;;;;;;4.20;1.88;;;;;;;17.30;70.88;99587.22;336479;28;16456;-69
2023/07/06 01:03:56;;;;;;;5.80;2.00;;;;;;;17.30;70.89;99588.06;334816;28;17919;-69
2023/07/06 01:04:11;;;;;;;5.20;1.95;;;;;;;17.28;70.55;99581.22;338203;28;4745;-69
2023/07/06 01:04:23;;;;;;;4.07;1.90;;;;;;;17.29;70.61;99590.81;334182;28;18433;-69
2023/07/06 01:04:36;;;;;;;3.92;2.00;;;;;;;17.27;70.74;99584.81;338062;28;4781;-69
2023/07/06 01:04:48;;;;;;;4.07;2.00;;;;;;;17.22;70.43;99586.84;334866;28;18444;-69
2023/07/06 01:05:04;;;;;;;3.55;1.85;;;;;;;17.15;70.30;99579.34;337121;28;5267;-69
2023/07/06 01:05:18;;;;;;;2.70;1.83;;;;;;;17.12;70.60;99587.44;335240;28;16007;-69
2023/07/06 01:05:31;;;;;;;2.47;1.70;;;;;;;17.12;70.57;99587.44;337434;28;5234;-69
2023/07/06 01:05:43;;;;;;;2.38;1.60;;;;;;;17.15;70.33;99584.59;336435;28;18078;-69
2023/07/06 01:06:00;;;;;;;3.05;1.73;;;;;;;17.15;70.45;99587.22;340437;28;4667;-69
2023/07/06 01:06:27;;;;;;;3.10;1.88;;;;;;;17.22;70.19;99586.84;336044;28;17943;-69
2023/07/06 01:06:43;;;;;;;2.45;1.90;;;;;;;17.24;70.41;99579.72;337594;28;17674;-69
2023/07/06 01:06:55;;;;;;;2.40;1.70;;;;;;;17.25;70.21;99582.25;337312;28;18491;-69
2023/07/06 01:07:11;;;;;;;2.47;1.70;;;;;;;17.24;70.53;99579.72;337054;28;18262;-69
2023/07/06 01:07:26;;;;;;;2.10;1.75;;;;;;;17.27;70.16;99582.16;335702;28;17956;-69
2023/07/06 01:07:41;;;;;;;2.58;1.70;;;;;;;17.29;69.83;99580.28;336942;28;17977;-69
2023/07/06 01:07:56;;;;;;;3.45;1.73;;;;;;;17.32;69.63;99582.72;336116;28;18114;-69
2023/07/06 01:08:15;;;;;;;3.50;1.90;;;;;;;17.33;69.46;99589.69;336306;28;19499;-69
2023/07/06 01:08:28;;;;;;;2.10;1.85;;;;;;;17.36;69.37;99585.09;335710;28;17843;-69
2023/07/06 01:08:40;;;;;;;1.80;1.70;;;;;;;17.35;69.95;99582.53;338923;28;4623;-69